createdAt,value
2022-10-01T00:00:32.228Z,99640.00
2022-10-01T00:03:01.474Z,99639.53
2022-10-01T00:05:30.380Z,99640.91
2022-10-01T00:07:59.342Z,99646.66
2022-10-01T00:10:30.254Z,99633.31
2022-10-01T00:12:59.410Z,99632.72
2022-10-01T00:15:29.780Z,99621.03
2022-10-01T00:17:59.237Z,99630.72
2022-10-01T00:20:28.348Z,99628.06
2022-10-01T00:22:57.325Z,99632.09
2022-10-01T00:25:26.684Z,99622.81
2022-10-01T00:27:55.795Z,99623.72
2022-10-01T00:30:24.929Z,99629.66
2022-10-01T00:32:56.577Z,99623.41
2022-10-01T00:35:25.775Z,99626.53
2022-10-01T00:37:54.804Z,99627.22
2022-10-01T00:40:24.885Z,99628.56
2022-10-01T00:42:54.863Z,99626.63
2022-10-01T00:45:24.807Z,99629.81
2022-10-01T00:47:59.241Z,99631.84
2022-10-01T00:50:33.192Z,99622.59
2022-10-01T00:53:06.609Z,99627.41
2022-10-01T00:55:40.832Z,99631.47
2022-10-01T00:58:11.862Z,99626.41
2022-10-01T01:00:42.963Z,99629.97
2022-10-01T01:03:14.049Z,99633.38
2022-10-01T01:05:44.260Z,99627.50
2022-10-01T01:08:13.340Z,99622.75
2022-10-01T01:10:51.603Z,99627.41
2022-10-01T01:13:31.315Z,99637.31
2022-10-01T01:16:07.337Z,99630.06
2022-10-01T01:18:43.091Z,99631.47
2022-10-01T01:21:19.753Z,99630.84
2022-10-01T01:24:30.109Z,99628.81
2022-10-01T01:27:26.033Z,99618.72
2022-10-01T01:30:04.425Z,99620.75
2022-10-01T01:32:46.502Z,99622.97
2022-10-01T01:35:23.419Z,99621.94
2022-10-01T01:37:58.518Z,99629.00
2022-10-01T01:40:28.692Z,99615.75
2022-10-01T01:42:59.616Z,99616.94
2022-10-01T01:45:33.920Z,99615.34
2022-10-01T01:48:04.942Z,99617.06
2022-10-01T01:50:42.829Z,99616.53
2022-10-01T01:53:12.541Z,99609.22
2022-10-01T01:55:41.617Z,99610.34
2022-10-01T01:58:10.621Z,99608.03
2022-10-01T02:00:41.712Z,99609.16
2022-10-01T02:03:11.133Z,99610.66
2022-10-01T02:05:50.411Z,99603.47
2022-10-01T02:08:34.067Z,99602.88
2022-10-01T02:11:14.841Z,99599.94
2022-10-01T02:13:53.137Z,99600.94
2022-10-01T02:16:32.375Z,99601.75
2022-10-01T02:19:06.084Z,99609.81
2022-10-01T02:21:42.071Z,99604.38
2022-10-01T02:24:19.326Z,99601.22
2022-10-01T02:26:53.805Z,99597.19
2022-10-01T02:29:24.880Z,99597.41
2022-10-01T02:31:57.916Z,99597.38
2022-10-01T02:34:33.838Z,99589.84
2022-10-01T02:37:12.008Z,99586.41
2022-10-01T02:39:42.861Z,99584.91
2022-10-01T02:42:16.066Z,99578.38
2022-10-01T02:44:46.917Z,99576.28
2022-10-01T02:47:22.072Z,99567.03
2022-10-01T02:49:52.568Z,99578.72
2022-10-01T02:52:29.338Z,99577.50
2022-10-01T02:55:02.057Z,99578.94
2022-10-01T02:57:33.050Z,99576.31
2022-10-01T03:00:04.557Z,99570.47
2022-10-01T03:02:35.003Z,99563.44
2022-10-01T03:05:04.534Z,99571.28
2022-10-01T03:07:35.828Z,99560.13
2022-10-01T03:10:05.230Z,99570.84
2022-10-01T03:12:34.633Z,99570.84
2022-10-01T03:15:04.085Z,99567.69
2022-10-01T03:17:38.136Z,99562.81
2022-10-01T03:20:08.692Z,99562.81
2022-10-01T03:22:37.624Z,99564.28
2022-10-01T03:25:07.321Z,99561.84
2022-10-01T03:27:36.493Z,99575.53
2022-10-01T03:30:06.390Z,99561.84
2022-10-01T03:32:36.834Z,99562.13
2022-10-01T03:35:06.339Z,99565.56
2022-10-01T03:37:35.390Z,99565.22
2022-10-01T03:40:07.485Z,99565.22
2022-10-01T03:42:36.658Z,99554.88
2022-10-01T03:45:09.107Z,99553.56
2022-10-01T03:47:45.283Z,99557.19
2022-10-01T03:50:16.310Z,99559.03
2022-10-01T03:52:50.787Z,99561.50
2022-10-01T03:55:20.292Z,99554.63
2022-10-01T03:57:50.447Z,99555.94
2022-10-01T04:00:23.022Z,99544.56
2022-10-01T04:02:53.677Z,99553.22
2022-10-01T04:05:23.131Z,99552.81
2022-10-01T04:07:52.883Z,99549.22
2022-10-01T04:10:24.799Z,99554.25
2022-10-01T04:12:55.840Z,99552.53
2022-10-01T04:15:28.646Z,99557.97
2022-10-01T04:18:05.742Z,99550.50
2022-10-01T04:20:38.945Z,99556.88
2022-10-01T04:23:07.999Z,99559.19
2022-10-01T04:25:37.188Z,99554.34
2022-10-01T04:28:08.407Z,99555.47
2022-10-01T04:30:39.925Z,99556.88
2022-10-01T04:33:13.234Z,99559.28
2022-10-01T04:35:45.417Z,99566.44
2022-10-01T04:38:17.039Z,99574.19
2022-10-01T04:40:48.406Z,99571.78
2022-10-01T04:43:20.767Z,99568.25
2022-10-01T04:45:50.084Z,99566.75
2022-10-01T04:48:20.563Z,99565.25
2022-10-01T04:50:52.036Z,99568.78
2022-10-01T04:53:21.130Z,99573.28
2022-10-01T04:55:54.012Z,99570.78
2022-10-01T04:58:23.088Z,99573.56
2022-10-01T05:00:52.633Z,99574.09
2022-10-01T05:03:22.974Z,99577.75
2022-10-01T05:05:57.942Z,99575.13
2022-10-01T05:08:31.165Z,99584.28
2022-10-01T05:11:00.774Z,99577.63
2022-10-01T05:13:41.556Z,99574.41
2022-10-01T05:16:11.926Z,99577.03
2022-10-01T05:18:42.967Z,99564.91
2022-10-01T05:21:15.676Z,99574.59
2022-10-01T05:23:45.807Z,99561.28
2022-10-01T05:26:15.147Z,99569.78
2022-10-01T05:28:47.695Z,99569.19
2022-10-01T05:31:18.891Z,99560.38
2022-10-01T05:33:49.561Z,99558.38
2022-10-01T05:36:19.199Z,99556.84
2022-10-01T05:38:49.818Z,99557.88
2022-10-01T05:41:19.213Z,99553.63
2022-10-01T05:43:50.225Z,99552.22
2022-10-01T05:46:19.867Z,99554.63
2022-10-01T05:48:51.523Z,99546.06
2022-10-01T05:51:20.892Z,99544.97
2022-10-01T05:53:52.436Z,99550.38
2022-10-01T05:56:21.602Z,99544.84
2022-10-01T05:58:52.916Z,99536.97
2022-10-01T06:01:22.132Z,99543.63
2022-10-01T06:03:54.350Z,99539.00
2022-10-01T06:06:27.747Z,99534.66
2022-10-01T06:08:58.269Z,99539.91
2022-10-01T06:11:35.176Z,99540.31
2022-10-01T06:14:06.752Z,99524.69
2022-10-01T06:16:35.952Z,99521.44
2022-10-01T06:19:06.767Z,99524.88
2022-10-01T06:21:37.491Z,99531.34
2022-10-01T06:24:07.209Z,99524.19
2022-10-01T06:26:38.264Z,99523.78
2022-10-01T06:29:07.298Z,99519.44
2022-10-01T06:31:40.397Z,99521.97
2022-10-01T06:34:12.412Z,99521.94
2022-10-01T06:36:41.678Z,99519.59
2022-10-01T06:39:15.217Z,99514.56
2022-10-01T06:41:47.326Z,99514.81
2022-10-01T06:44:24.610Z,99511.69
2022-10-01T06:46:55.034Z,99502.47
2022-10-01T06:49:27.262Z,99500.09
2022-10-01T06:52:18.042Z,99491.41
2022-10-01T06:54:53.698Z,99502.47
2022-10-01T07:00:49.524Z,99484.50
2022-10-01T07:03:31.448Z,99487.94
2022-10-01T07:09:14.472Z,99475.44
2022-10-01T07:11:47.611Z,99475.44
2022-10-01T07:14:18.786Z,99473.28
2022-10-01T07:16:49.213Z,99470.75
2022-10-01T07:19:19.171Z,99470.56
2022-10-01T07:22:20.934Z,99470.00
2022-10-01T07:28:04.776Z,99472.75
2022-10-01T07:30:39.596Z,99473.19
2022-10-01T07:33:13.433Z,99471.09
2022-10-01T07:35:43.780Z,99469.75
2022-10-01T07:38:14.553Z,99465.56
2022-10-01T07:40:53.386Z,99454.16
2022-10-01T07:43:32.216Z,99455.78
2022-10-01T07:46:24.130Z,99453.44
2022-10-01T07:48:59.617Z,99448.22
2022-10-01T07:51:32.344Z,99452.03
2022-10-01T07:54:03.445Z,99446.44
2022-10-01T07:56:33.862Z,99440.31
2022-10-01T07:59:11.046Z,99431.47
2022-10-01T08:01:44.879Z,99431.00
2022-10-01T08:07:55.505Z,99423.53
2022-10-01T08:10:26.759Z,99412.81
2022-10-01T08:13:02.189Z,99404.44
2022-10-01T08:15:47.057Z,99395.00
2022-10-01T08:18:26.338Z,99391.88
2022-10-01T08:21:25.857Z,99392.47
2022-10-01T08:23:55.591Z,99393.44
2022-10-01T08:26:25.084Z,99382.22
2022-10-01T08:28:54.611Z,99381.69
2022-10-01T08:31:30.101Z,99384.47
2022-10-01T08:34:56.546Z,99384.56
2022-10-01T08:37:32.208Z,99380.72
2022-10-01T08:40:27.191Z,99375.06
2022-10-01T08:43:10.790Z,99374.38
2022-10-01T08:45:47.805Z,99371.53
2022-10-01T08:48:49.497Z,99359.47
2022-10-01T08:56:21.689Z,99361.94
2022-10-01T09:00:22.127Z,99360.16
2022-10-01T09:03:11.181Z,99358.50
2022-10-01T09:07:10.234Z,99348.16
2022-10-01T09:10:49.998Z,99341.38
2022-10-01T09:14:12.539Z,99342.41
2022-10-01T09:16:58.330Z,99335.41
2022-10-01T09:19:49.189Z,99338.75
2022-10-01T09:22:30.080Z,99333.03
2022-10-01T09:25:11.401Z,99326.25
2022-10-01T09:27:47.818Z,99320.50
2022-10-01T09:30:26.855Z,99323.38
2022-10-01T09:33:21.152Z,99318.25
2022-10-01T09:36:56.272Z,99307.81
2022-10-01T09:47:26.020Z,99303.97
2022-10-01T09:50:03.005Z,99306.66
2022-10-01T09:53:05.311Z,99282.34
2022-10-01T09:56:01.522Z,99291.81
2022-10-01T09:58:39.547Z,99291.25
2022-10-01T10:01:19.848Z,99283.84
2022-10-01T10:03:57.089Z,99286.47
2022-10-01T10:06:32.160Z,99281.19
2022-10-01T10:09:07.054Z,99282.09
2022-10-01T10:17:06.920Z,99273.75
2022-10-01T10:20:19.180Z,99269.88
2022-10-01T10:35:18.692Z,99259.00
2022-10-01T10:38:09.736Z,99251.88
2022-10-01T10:41:57.825Z,99253.19
2022-10-01T10:45:45.785Z,99255.88
2022-10-01T10:48:22.311Z,99245.69
2022-10-01T10:52:20.757Z,99238.47
2022-10-01T10:55:03.391Z,99234.91
2022-10-01T10:57:45.338Z,99222.41
2022-10-01T11:01:44.373Z,99209.56
2022-10-01T11:04:51.607Z,99207.69
2022-10-01T11:08:02.650Z,99231.09
2022-10-01T11:11:08.079Z,99236.00
2022-10-01T11:24:07.148Z,99230.41
2022-10-01T11:26:55.681Z,99231.38
2022-10-01T11:29:43.786Z,99226.78
2022-10-01T12:12:39.018Z,99154.34
2022-10-01T12:15:59.463Z,99140.66
2022-10-01T12:18:55.104Z,99143.31
2022-10-01T12:22:44.373Z,99139.25
2022-10-01T12:25:16.258Z,99133.84
2022-10-01T12:27:59.626Z,99131.09
2022-10-01T12:30:36.879Z,99144.69
2022-10-01T12:33:55.751Z,99144.31
2022-10-01T12:36:55.079Z,99134.38
2022-10-01T12:40:02.661Z,99134.09
2022-10-01T12:43:03.819Z,99135.75
2022-10-01T12:45:45.949Z,99130.97
2022-10-01T12:51:57.840Z,99133.56
2022-10-01T12:55:04.517Z,99126.69
2022-10-01T13:03:32.943Z,99124.91
2022-10-01T13:07:10.548Z,99114.47
2022-10-01T13:10:34.956Z,99107.78
2022-10-01T13:13:28.372Z,99098.59
2022-10-01T13:17:08.258Z,99095.28
2022-10-01T13:20:12.766Z,99086.94
2022-10-01T13:28:42.982Z,99094.59
2022-10-01T13:31:57.155Z,99090.69
2022-10-01T13:34:35.752Z,99091.72
2022-10-01T13:37:23.378Z,99072.75
2022-10-01T13:40:04.131Z,99079.50
2022-10-01T13:42:48.159Z,99082.16
2022-10-01T13:45:30.467Z,99061.84
2022-10-01T13:48:11.411Z,99066.75
2022-10-01T13:50:59.268Z,99066.09
2022-10-01T13:59:33.426Z,99066.31
2022-10-01T14:07:29.767Z,99070.69
2022-10-01T14:15:36.421Z,99060.03
2022-10-01T14:24:27.360Z,99065.22
2022-10-01T14:27:07.009Z,99064.63
2022-10-01T14:29:51.751Z,99056.69
2022-10-01T14:33:13.490Z,99054.63
2022-10-01T14:36:03.284Z,99058.09
2022-10-01T14:43:22.093Z,99037.44
2022-10-01T14:46:38.126Z,99032.94
2022-10-01T14:49:27.713Z,99032.41
2022-10-01T14:52:05.443Z,99032.09
2022-10-01T14:54:44.372Z,99022.72
2022-10-01T14:57:20.082Z,99022.56
2022-10-01T14:59:53.385Z,99013.38
2022-10-01T15:02:27.027Z,99017.53
2022-10-01T15:05:00.384Z,99011.38
2022-10-01T15:07:42.274Z,99008.28
2022-10-01T15:10:21.643Z,99002.13
2022-10-01T15:12:57.904Z,99004.81
2022-10-01T15:15:45.341Z,98993.06
2022-10-01T15:21:29.945Z,98977.00
2022-10-01T15:24:03.814Z,98978.63
2022-10-01T15:30:01.991Z,98982.91
2022-10-01T15:32:34.774Z,98971.03
2022-10-01T15:38:41.975Z,98966.44
2022-10-01T15:41:32.050Z,98963.06
2022-10-01T15:44:52.640Z,98951.31
2022-10-01T15:47:31.176Z,98954.84
2022-10-01T15:50:20.114Z,98941.91
2022-10-01T15:53:00.516Z,98943.56
2022-10-01T15:55:37.070Z,98941.13
2022-10-01T15:58:40.002Z,98938.50
2022-10-01T16:01:12.678Z,98923.44
2022-10-01T16:04:08.771Z,98934.72
2022-10-01T16:06:53.793Z,98923.13
2022-10-01T16:09:56.261Z,98918.31
2022-10-01T16:13:25.668Z,98914.97
2022-10-01T16:16:53.667Z,98915.53
2022-10-01T16:19:45.747Z,98908.03
2022-10-01T16:22:26.828Z,98906.53
2022-10-01T16:25:01.254Z,98906.97
2022-10-01T16:27:36.999Z,98899.31
2022-10-01T16:52:27.902Z,98851.78
2022-10-01T16:54:58.100Z,98844.13
2022-10-01T16:57:28.769Z,98835.72
2022-10-01T17:27:23.406Z,98807.53
2022-10-01T17:30:11.901Z,98795.56
2022-10-01T17:33:44.647Z,98787.22
2022-10-01T17:36:17.920Z,98790.97
2022-10-01T17:39:19.460Z,98783.28
2022-10-01T17:41:49.924Z,98785.91
2022-10-01T17:44:28.740Z,98774.28
2022-10-01T17:47:00.074Z,98765.75
2022-10-01T17:49:29.904Z,98770.50
2022-10-01T17:51:59.265Z,98764.69
2022-10-01T17:54:32.294Z,98750.97
2022-10-01T17:57:02.346Z,98750.41
2022-10-01T17:59:34.058Z,98744.84
2022-10-01T18:02:18.670Z,98741.47
2022-10-01T18:04:54.375Z,98737.53
2022-10-01T18:07:37.331Z,98739.66
2022-10-01T18:10:15.578Z,98722.34
2022-10-01T18:12:47.852Z,98714.00
2022-10-01T18:15:44.408Z,98722.53
2022-10-01T18:19:51.350Z,98713.28
2022-10-01T18:21:26.621Z,98718.03
2022-10-01T18:30:02.807Z,98687.53
2022-10-01T18:32:42.812Z,98695.41
2022-10-01T18:39:34.042Z,98664.41
2022-10-01T18:42:15.264Z,98657.75
2022-10-01T18:45:16.527Z,98649.66
2022-10-01T18:48:14.251Z,98649.94
2022-10-01T18:50:52.660Z,98637.97
2022-10-01T18:53:56.265Z,98631.28
2022-10-01T18:56:32.801Z,98632.34
2022-10-01T18:59:29.210Z,98632.19
2022-10-01T19:02:14.307Z,98638.38
2022-10-01T19:05:48.127Z,98631.50
2022-10-01T19:08:50.936Z,98628.06
2022-10-01T19:11:33.632Z,98625.34
2022-10-01T19:14:40.306Z,98624.53
2022-10-01T19:17:22.145Z,98614.53
2022-10-01T19:20:05.698Z,98630.38
2022-10-01T19:50:55.064Z,98599.31
